Time;durP1;ratioP1;P1;durP2;ratioP2;P2;SDS_P1;SDS_P2;PMS_P1;PMS_P2;Temp;Humidity;BMP_temperature;BMP_pressure;BME280_temperature;BME280_humidity;BME280_pressure;Samples;Min_cycle;Max_cycle;Signal;HPM_P1;HPM_P2
2021/08/24 00:02:09;;;;;;;2.60;1.33;;;;;;;11.67;100.00;101797.22;5019942;28;20045;-84
2021/08/24 00:04:38;;;;;;;2.97;1.60;;;;;;;11.66;100.00;101791.94;5033501;28;20056;-84
2021/08/24 00:07:05;;;;;;;6.32;1.98;;;;;;;11.59;100.00;101803.47;4992668;28;20149;-84
2021/08/24 00:09:34;;;;;;;2.90;1.30;;;;;;;11.55;100.00;101803.50;5005994;28;20060;-84
2021/08/24 00:12:00;;;;;;;3.40;1.38;;;;;;;11.49;100.00;101797.34;4999587;28;20041;-83
2021/08/24 00:14:27;;;;;;;4.18;1.73;;;;;;;11.42;100.00;101795.63;5008796;28;20041;-84
2021/08/24 00:16:54;;;;;;;3.70;1.60;;;;;;;11.45;100.00;101798.28;5013985;28;20647;-82
2021/08/24 00:19:21;;;;;;;2.97;1.45;;;;;;;11.46;100.00;101795.63;5007268;28;20123;-82
2021/08/24 00:21:48;;;;;;;4.43;2.15;;;;;;;11.43;100.00;101800.03;4984229;28;20665;-82
2021/08/24 00:24:15;;;;;;;3.15;1.45;;;;;;;11.40;100.00;101805.34;5006351;28;20538;-82
2021/08/24 00:26:45;;;;;;;2.97;1.48;;;;;;;11.30;100.00;101808.94;5017951;28;20029;-82
2021/08/24 00:29:12;;;;;;;3.95;2.03;;;;;;;11.27;100.00;101813.38;4991471;28;20560;-84
2021/08/24 00:31:39;;;;;;;2.53;1.50;;;;;;;11.34;100.00;101810.66;4997772;28;20045;-82
2021/08/24 00:34:06;;;;;;;3.30;1.52;;;;;;;11.24;100.00;101810.72;4996780;28;20069;-82
2021/08/24 00:36:33;;;;;;;4.93;2.00;;;;;;;11.22;100.00;101812.50;5006764;28;20044;-83
2021/08/24 00:38:59;;;;;;;3.95;1.80;;;;;;;11.15;100.00;101815.16;4996545;28;20083;-82
2021/08/24 00:41:28;;;;;;;2.35;1.58;;;;;;;11.16;100.00;101815.16;5004590;28;20549;-82
2021/08/24 00:43:58;;;;;;;2.97;1.58;;;;;;;11.19;100.00;101824.88;5022360;28;20063;-82
2021/08/24 00:46:44;;;;;;;2.20;1.40;;;;;;;11.13;100.00;101819.59;5009214;28;20414;-82
2021/08/24 00:49:20;;;;;;;2.67;1.50;;;;;;;11.12;100.00;101823.13;4975940;28;20052;-82
2021/08/24 00:51:52;;;;;;;3.40;1.88;;;;;;;11.07;100.00;101822.25;4982103;28;20083;-82
2021/08/24 00:54:21;;;;;;;3.95;1.73;;;;;;;11.04;100.00;101827.56;5001296;28;20056;-82
2021/08/24 00:56:51;;;;;;;2.15;1.38;;;;;;;11.05;100.00;101824.03;4999276;28;20483;-83
2021/08/24 00:59:18;;;;;;;2.15;1.30;;;;;;;11.03;100.00;101828.47;4992307;28;20046;-82
2021/08/24 01:01:46;;;;;;;4.25;1.63;;;;;;;11.04;100.00;101823.16;4978475;28;20034;-83
2021/08/24 01:04:14;;;;;;;2.20;1.48;;;;;;;11.04;100.00;101831.09;5003230;28;20210;-82
2021/08/24 01:06:58;;;;;;;4.10;1.75;;;;;;;11.00;100.00;101831.97;4998117;28;20037;-82
2021/08/24 01:09:47;;;;;;;3.80;1.48;;;;;;;11.00;100.00;101838.13;5042766;28;20049;-83
2021/08/24 01:12:32;;;;;;;3.28;1.77;;;;;;;11.00;100.00;101834.63;5015910;28;20049;-83
2021/08/24 01:14:58;;;;;;;3.53;1.85;;;;;;;11.00;100.00;101835.50;5012467;28;20050;-82
2021/08/24 01:17:41;;;;;;;3.05;1.40;;;;;;;10.96;100.00;101846.97;5006114;28;20111;-83
2021/08/24 01:20:26;;;;;;;3.95;1.60;;;;;;;10.97;100.00;101842.56;5017769;28;20041;-83
2021/08/24 01:23:18;;;;;;;3.72;1.60;;;;;;;10.89;100.00;101844.34;4997670;28;20042;-84
2021/08/24 01:26:01;;;;;;;2.35;1.55;;;;;;;10.83;100.00;101853.16;5007176;28;20065;-83
2021/08/24 01:29:04;;;;;;;3.58;2.03;;;;;;;10.76;100.00;101856.72;4994830;28;20049;-84
2021/08/24 01:31:56;;;;;;;2.90;1.70;;;;;;;10.74;100.00;101857.59;5001488;28;20046;-84
2021/08/24 01:34:40;;;;;;;3.45;1.60;;;;;;;10.69;100.00;101852.34;5014242;28;20047;-83
2021/08/24 01:37:13;;;;;;;3.15;1.58;;;;;;;10.67;100.00;101857.59;4985174;28;20498;-83
2021/08/24 01:39:52;;;;;;;5.57;1.73;;;;;;;10.70;100.00;101847.06;5014384;28;20053;-83
2021/08/24 01:42:21;;;;;;;2.33;1.65;;;;;;;10.64;100.00;101860.25;4996677;28;20040;-83
2021/08/24 01:45:25;;;;;;;2.80;1.90;;;;;;;10.71;100.00;101859.38;4979674;28;20060;-82
2021/08/24 01:47:57;;;;;;;4.15;1.80;;;;;;;10.69;100.00;101853.22;4966976;28;20100;-83
2021/08/24 01:50:44;;;;;;;3.90;1.77;;;;;;;10.66;100.00;101855.84;4995418;28;20048;-83
2021/08/24 01:53:19;;;;;;;4.22;1.70;;;;;;;10.69;100.00;101858.50;4998668;28;20115;-83
2021/08/24 01:55:46;;;;;;;;;;;;;;;10.65;100.00;101858.50;5033562;28;20056;-83
2021/08/24 01:58:18;;;;;;;4.15;1.52;;;;;;;10.56;100.00;101859.41;5005359;28;19933;-83
2021/08/24 02:00:47;;;;;;;3.47;2.10;;;;;;;10.60;100.00;101858.53;5002573;28;20076;-83
2021/08/24 02:03:20;;;;;;;4.00;2.05;;;;;;;10.56;100.00;101854.09;5015633;28;20053;-83
2021/08/24 02:05:49;;;;;;;5.85;2.00;;;;;;;10.57;100.00;101847.94;4977014;28;20052;-83
2021/08/24 02:08:19;;;;;;;3.25;1.58;;;;;;;10.59;100.00;101851.44;4995972;28;20041;-83
2021/08/24 02:10:46;;;;;;;2.55;1.40;;;;;;;10.52;100.00;101848.84;4979428;28;20048;-84
2021/08/24 02:13:14;;;;;;;2.38;1.80;;;;;;;10.50;100.00;101853.22;5005087;28;20041;-84
2021/08/24 02:15:43;;;;;;;2.53;1.65;;;;;;;10.48;100.00;101850.59;5000112;28;20392;-84
2021/08/24 02:18:16;;;;;;;3.28;1.88;;;;;;;10.45;100.00;101847.09;4997824;28;20053;-84
2021/08/24 02:20:47;;;;;;;4.22;1.80;;;;;;;10.39;100.00;101848.84;5002486;28;20133;-84
2021/08/24 02:23:18;;;;;;;5.90;2.20;;;;;;;10.40;100.00;101852.38;4998292;28;20050;-84
2021/08/24 02:25:46;;;;;;;3.83;1.80;;;;;;;10.40;100.00;101855.00;5027476;28;20053;-84
2021/08/24 02:28:17;;;;;;;6.30;2.00;;;;;;;10.42;100.00;101862.06;4987501;28;20462;-85
2021/08/24 02:30:51;;;;;;;4.03;2.13;;;;;;;10.36;100.00;101861.19;5006363;28;20041;-84
2021/08/24 02:33:19;;;;;;;4.75;2.00;;;;;;;10.31;100.00;101870.84;4984329;28;20250;-83
2021/08/24 02:35:56;;;;;;;3.47;1.70;;;;;;;10.33;100.00;101869.09;4961455;28;20045;-83
2021/08/24 02:38:25;;;;;;;2.40;1.83;;;;;;;10.31;100.00;101870.84;4995664;28;20037;-82
2021/08/24 02:40:56;;;;;;;6.93;2.28;;;;;;;10.27;100.00;101874.41;5019751;28;20095;-84
2021/08/24 02:43:32;;;;;;;4.85;1.75;;;;;;;10.24;100.00;101875.25;4990386;28;20132;-84
2021/08/24 02:46:21;;;;;;;3.55;1.70;;;;;;;10.20;100.00;101878.75;5002666;28;20454;-83
2021/08/24 02:48:52;;;;;;;3.00;1.77;;;;;;;10.18;100.00;101885.81;5020568;28;20057;-84
2021/08/24 02:51:19;;;;;;;3.95;2.45;;;;;;;10.11;100.00;101884.03;4998874;28;20103;-84
2021/08/24 02:54:08;;;;;;;2.25;1.67;;;;;;;10.10;100.00;101885.78;4979117;28;20037;-84
2021/08/24 02:56:35;;;;;;;3.13;1.67;;;;;;;10.06;100.00;101877.84;5012701;28;20461;-84
2021/08/24 02:59:01;;;;;;;2.80;1.67;;;;;;;10.05;100.00;101886.66;4997499;28;20124;-84
2021/08/24 03:01:28;;;;;;;4.00;1.95;;;;;;;10.01;100.00;101877.00;5029935;28;20049;-84
2021/08/24 03:03:55;;;;;;;4.05;1.60;;;;;;;10.01;100.00;101879.63;4995157;28;20501;-83
2021/08/24 03:06:22;;;;;;;2.03;1.58;;;;;;;9.97;100.00;101878.72;4993537;28;20045;-83
2021/08/24 03:08:49;;;;;;;2.25;1.83;;;;;;;9.96;100.00;101884.88;4992210;28;20040;-84
2021/08/24 03:11:22;;;;;;;3.08;1.92;;;;;;;9.96;100.00;101884.88;4997438;28;20045;-83
2021/08/24 03:13:55;;;;;;;3.00;1.75;;;;;;;9.97;100.00;101885.78;4987660;28;20048;-83
2021/08/24 03:16:28;;;;;;;3.10;1.97;;;;;;;9.94;100.00;101891.06;4995593;28;20511;-84
2021/08/24 03:19:00;;;;;;;3.95;1.58;;;;;;;9.95;100.00;101892.81;5013609;28;20037;-84
2021/08/24 03:21:32;;;;;;;3.90;2.10;;;;;;;10.01;100.00;101890.19;4983894;28;20037;-87
2021/08/24 03:24:01;;;;;;;2.88;1.90;;;;;;;10.00;100.00;101891.91;5000897;28;20061;-83
2021/08/24 03:26:32;;;;;;;2.80;1.70;;;;;;;9.94;100.00;101891.94;4983345;28;20049;-84
2021/08/24 03:29:00;;;;;;;4.47;1.75;;;;;;;9.97;100.00;101896.31;5012772;28;20514;-84
2021/08/24 03:31:28;;;;;;;3.17;1.55;;;;;;;9.91;100.00;101896.31;5003371;28;20052;-85
2021/08/24 03:33:55;;;;;;;4.22;2.03;;;;;;;9.92;100.00;101893.69;5007069;28;20068;-84
2021/08/24 03:36:22;;;;;;;4.50;1.80;;;;;;;9.95;100.00;101895.44;4996056;28;20060;-84
2021/08/24 03:38:48;;;;;;;3.33;1.60;;;;;;;9.86;100.00;101898.97;5013400;28;20048;-83
2021/08/24 03:41:15;;;;;;;3.67;1.70;;;;;;;9.80;100.00;101894.53;4999133;28;20050;-83
2021/08/24 03:43:42;;;;;;;3.72;2.03;;;;;;;9.80;100.00;101899.81;5033087;28;20132;-83
2021/08/24 03:46:09;;;;;;;3.28;1.90;;;;;;;9.78;100.00;101900.69;5030308;23;20858;-83
2021/08/24 03:48:36;;;;;;;1.98;1.65;;;;;;;9.75;100.00;101906.84;4986485;28;20046;-82
2021/08/24 03:51:02;;;;;;;2.50;1.85;;;;;;;9.68;100.00;101905.06;4974455;28;20129;-83
2021/08/24 03:53:29;;;;;;;2.88;1.50;;;;;;;9.68;100.00;101905.06;4964098;28;20050;-82
2021/08/24 03:55:56;;;;;;;3.03;1.45;;;;;;;9.65;100.00;101906.78;4955568;28;20050;-82
2021/08/24 03:58:22;;;;;;;1.80;1.40;;;;;;;9.59;100.00;101900.66;4972719;28;20042;-83
2021/08/24 04:00:49;;;;;;;2.67;1.65;;;;;;;9.58;100.00;101911.16;4972243;28;20053;-82
2021/08/24 04:03:16;;;;;;;2.67;1.80;;;;;;;9.55;100.00;101916.44;4977633;28;20053;-82
2021/08/24 04:05:44;;;;;;;1.92;1.38;;;;;;;9.52;100.00;101919.97;4976029;28;20042;-83
2021/08/24 04:08:10;;;;;;;4.03;1.95;;;;;;;9.58;100.00;101921.72;4973152;28;20152;-83
2021/08/24 04:10:37;;;;;;;2.28;1.52;;;;;;;9.56;100.00;101920.84;4970148;28;20041;-83
2021/08/24 04:13:04;;;;;;;4.05;1.98;;;;;;;9.51;100.00;101923.47;4973953;28;20053;-82
2021/08/24 04:15:31;;;;;;;4.18;2.00;;;;;;;9.48;100.00;101923.44;4971413;28;20042;-82
2021/08/24 04:17:58;;;;;;;2.13;1.38;;;;;;;9.51;100.00;101926.13;4967029;28;20038;-83
2021/08/24 04:20:25;;;;;;;2.13;1.70;;;;;;;9.46;100.00;101924.31;4960636;28;20038;-84
2021/08/24 04:22:51;;;;;;;2.35;1.40;;;;;;;9.46;100.00;101925.19;4960482;28;20463;-83
2021/08/24 04:25:19;;;;;;;2.53;1.50;;;;;;;9.50;100.00;101928.72;4959142;28;20050;-83
2021/08/24 04:27:46;;;;;;;2.42;1.30;;;;;;;9.51;100.00;101933.16;4978379;28;20521;-83
2021/08/24 04:30:12;;;;;;;2.50;1.50;;;;;;;9.56;100.00;101931.41;4953995;28;20045;-82
2021/08/24 04:32:43;;;;;;;2.97;1.65;;;;;;;9.56;100.00;101932.28;5007409;28;20041;-82
2021/08/24 04:35:11;;;;;;;6.55;1.60;;;;;;;9.55;100.00;101930.50;4958750;28;20052;-84
2021/08/24 04:37:37;;;;;;;2.55;1.70;;;;;;;9.57;100.00;101939.31;4976492;28;20057;-84
2021/08/24 04:40:05;;;;;;;3.00;1.30;;;;;;;9.62;100.00;101941.97;4975249;28;20046;-83
2021/08/24 04:42:32;;;;;;;2.38;1.55;;;;;;;9.61;100.00;101949.91;4989848;28;20049;-83
2021/08/24 04:44:58;;;;;;;1.90;1.50;;;;;;;9.58;100.00;101951.66;4970817;28;20061;-83
2021/08/24 04:47:25;;;;;;;3.10;1.38;;;;;;;9.57;100.00;101951.63;4962858;28;20072;-83
2021/08/24 04:49:54;;;;;;;3.03;1.65;;;;;;;9.58;100.00;101958.66;4982390;28;20046;-84
2021/08/24 04:52:21;;;;;;;2.28;1.58;;;;;;;9.62;100.00;101955.16;4992490;28;20046;-84
2021/08/24 04:54:48;;;;;;;2.45;1.50;;;;;;;9.68;100.00;101956.97;4976337;28;20045;-84
2021/08/24 04:57:15;;;;;;;3.72;1.98;;;;;;;9.69;100.00;101958.72;4975015;28;20042;-83
2021/08/24 04:59:41;;;;;;;4.53;2.03;;;;;;;9.73;100.00;101957.84;4959532;28;20030;-84
2021/08/24 05:02:08;;;;;;;3.28;1.30;;;;;;;9.71;100.00;101951.69;4965834;28;20112;-84
2021/08/24 05:04:35;;;;;;;1.90;1.23;;;;;;;9.74;100.00;101960.47;4974469;28;20096;-84
2021/08/24 05:07:02;;;;;;;2.22;1.60;;;;;;;9.76;100.00;101961.41;4960846;28;20054;-84
2021/08/24 05:09:29;;;;;;;1.88;1.20;;;;;;;9.78;100.00;101956.13;4985341;28;20478;-83
2021/08/24 05:11:56;;;;;;;3.72;1.45;;;;;;;9.86;100.00;101959.66;4971068;28;20592;-84
2021/08/24 05:14:23;;;;;;;3.10;1.50;;;;;;;9.91;100.00;101971.09;4958155;28;20078;-83
2021/08/24 05:16:55;;;;;;;2.65;1.65;;;;;;;9.98;100.00;101964.09;4958509;28;20046;-84
2021/08/24 05:19:22;;;;;;;3.38;1.42;;;;;;;10.03;100.00;101965.88;4968991;28;20491;-84
2021/08/24 05:21:49;;;;;;;3.75;1.48;;;;;;;10.04;100.00;101964.13;4971437;28;20101;-83
2021/08/24 05:24:16;;;;;;;2.05;1.55;;;;;;;10.06;100.00;101960.59;4952550;28;20109;-83
2021/08/24 05:26:43;;;;;;;2.90;1.27;;;;;;;10.13;100.00;101962.38;4975201;28;20041;-84
2021/08/24 05:29:12;;;;;;;3.15;1.42;;;;;;;10.16;100.00;101958.84;4960361;28;20172;-84
2021/08/24 05:31:39;;;;;;;2.80;1.58;;;;;;;10.21;100.00;101966.78;4994180;28;20038;-83
2021/08/24 05:34:05;;;;;;;2.53;1.58;;;;;;;10.27;100.00;101964.19;4962235;28;20164;-84
2021/08/24 05:36:32;;;;;;;3.50;1.40;;;;;;;10.30;100.00;101958.91;4979089;28;20053;-84
2021/08/24 05:39:01;;;;;;;1.33;1.10;;;;;;;10.35;100.00;101955.41;4962876;28;20073;-84
2021/08/24 05:41:29;;;;;;;1.67;1.50;;;;;;;10.52;100.00;101958.06;4960691;28;20054;-84
2021/08/24 05:43:56;;;;;;;2.33;1.40;;;;;;;10.55;100.00;101960.69;5007192;28;20136;-84
2021/08/24 05:46:22;;;;;;;1.75;1.40;;;;;;;10.56;100.00;101965.09;4980024;28;20050;-84
2021/08/24 05:48:49;;;;;;;1.70;1.10;;;;;;;10.60;100.00;101968.63;4972910;28;20479;-84
2021/08/24 05:51:19;;;;;;;2.17;1.20;;;;;;;10.67;100.00;101960.69;4953317;28;20041;-84
2021/08/24 05:53:45;;;;;;;2.03;1.42;;;;;;;10.75;100.00;101971.25;4976749;28;20326;-83
2021/08/24 05:56:15;;;;;;;4.00;1.55;;;;;;;10.87;100.00;101980.97;4969507;28;20101;-84
2021/08/24 05:58:42;;;;;;;2.47;1.50;;;;;;;10.83;100.00;101969.50;4976722;28;20038;-84
2021/08/24 06:01:17;;;;;;;2.42;1.40;;;;;;;10.91;100.00;101975.66;4978021;28;20487;-83
2021/08/24 06:03:44;;;;;;;3.05;1.40;;;;;;;10.97;100.00;101969.50;4961051;28;20614;-84
2021/08/24 06:06:24;;;;;;;3.15;1.70;;;;;;;11.11;100.00;101982.72;4972574;28;20606;-85
2021/08/24 06:08:51;;;;;;;2.97;1.85;;;;;;;11.07;100.00;101984.47;4961080;28;20042;-83
2021/08/24 06:11:24;;;;;;;3.05;1.88;;;;;;;11.26;100.00;101991.47;4978963;28;20046;-84
2021/08/24 06:13:52;;;;;;;3.73;1.80;;;;;;;11.66;100.00;101986.06;4956948;28;20590;-83
2021/08/24 06:16:19;;;;;;;2.95;1.60;;;;;;;11.76;100.00;101984.25;4972320;28;20049;-84
2021/08/24 06:18:46;;;;;;;2.20;1.70;;;;;;;11.83;100.00;101986.03;4976566;28;20397;-84
2021/08/24 06:21:14;;;;;;;3.88;1.90;;;;;;;11.79;100.00;101985.16;4994444;28;20499;-84
2021/08/24 06:23:41;;;;;;;2.40;1.60;;;;;;;11.93;100.00;101990.41;4957467;28;20046;-83
2021/08/24 06:26:08;;;;;;;3.55;1.80;;;;;;;12.02;100.00;101989.47;4986669;28;20527;-83
2021/08/24 06:28:35;;;;;;;2.55;1.67;;;;;;;12.47;100.00;101987.44;4995651;28;20029;-84
2021/08/24 06:31:03;;;;;;;2.92;1.83;;;;;;;12.99;100.00;101989.66;4977477;28;20632;-85
2021/08/24 06:33:35;;;;;;;4.20;2.00;;;;;;;13.90;100.00;101987.81;4994701;28;20049;-84
2021/08/24 06:36:03;;;;;;;3.22;1.83;;;;;;;15.48;93.72;101990.56;4943136;28;20104;-84
2021/08/24 06:38:31;;;;;;;3.78;1.73;;;;;;;16.63;82.02;101993.38;4959861;28;20531;-85
2021/08/24 06:40:59;;;;;;;2.78;1.40;;;;;;;17.33;77.48;101996.97;4991367;28;20427;-85
2021/08/24 06:43:26;;;;;;;2.75;1.60;;;;;;;17.90;73.46;101990.88;4976454;28;20042;-84
2021/08/24 06:45:52;;;;;;;1.70;1.20;;;;;;;18.10;70.87;101995.66;4990676;28;20073;-85
2021/08/24 06:48:20;;;;;;;6.18;1.70;;;;;;;18.41;68.50;101997.34;4975852;28;20142;-84
2021/08/24 06:50:47;;;;;;;2.80;1.63;;;;;;;18.70;67.47;102001.81;4965942;28;20046;-82
2021/08/24 06:53:13;;;;;;;4.18;1.65;;;;;;;19.05;69.08;101996.13;4965434;28;20045;-84
2021/08/24 06:55:40;;;;;;;3.10;1.42;;;;;;;19.19;68.54;102000.16;4993278;28;20136;-83
2021/08/24 06:58:08;;;;;;;2.63;1.33;;;;;;;19.36;65.76;101997.75;4975116;28;20168;-84
2021/08/24 07:00:37;;;;;;;1.58;1.13;;;;;;;19.41;67.29;102003.81;4975619;28;20050;-83
2021/08/24 07:03:05;;;;;;;2.13;1.52;;;;;;;19.24;67.24;102003.53;4995106;28;20205;-86
2021/08/24 07:05:33;;;;;;;3.42;1.77;;;;;;;19.19;66.99;102009.06;4993431;28;20061;-87
2021/08/24 07:08:00;;;;;;;3.63;1.70;;;;;;;18.67;66.36;102004.59;4979203;28;20052;-85
2021/08/24 07:10:28;;;;;;;3.47;1.60;;;;;;;18.71;67.54;102006.25;5000687;28;20465;-86
2021/08/24 07:12:55;;;;;;;2.53;1.50;;;;;;;18.70;67.04;102000.00;4994684;28;20066;-86
2021/08/24 07:15:23;;;;;;;4.15;1.90;;;;;;;18.12;69.32;102011.66;4956909;28;20085;-86
2021/08/24 07:17:53;;;;;;;3.15;1.73;;;;;;;17.89;68.50;102012.31;4991526;28;20071;-86
2021/08/24 07:20:23;;;;;;;3.58;2.13;;;;;;;17.78;68.88;102007.28;4993083;28;20049;-86
2021/08/24 07:22:50;;;;;;;5.28;1.95;;;;;;;17.61;69.11;102014.88;4943649;28;20054;-84
2021/08/24 07:25:22;;;;;;;3.47;1.90;;;;;;;17.62;69.14;102012.16;4974281;28;20092;-85
2021/08/24 07:27:48;;;;;;;2.50;1.60;;;;;;;17.81;73.02;102012.53;4991499;28;20050;-83
2021/08/24 07:30:16;;;;;;;3.20;2.03;;;;;;;17.70;69.86;102020.00;4976698;28;20080;-83
2021/08/24 07:32:43;;;;;;;2.75;1.85;;;;;;;17.40;70.57;102019.00;4990825;28;20438;-84
2021/08/24 07:35:11;;;;;;;2.70;1.60;;;;;;;17.28;70.29;102022.91;4992427;28;20046;-84
2021/08/24 07:37:38;;;;;;;3.75;1.63;;;;;;;17.36;72.36;102026.25;4994338;28;20125;-83
2021/08/24 07:40:07;;;;;;;3.22;1.88;;;;;;;17.56;71.32;102022.16;4982740;28;20046;-83
2021/08/24 07:42:34;;;;;;;4.72;1.67;;;;;;;17.80;70.87;102028.63;4993381;28;20077;-84
2021/08/24 07:45:03;;;;;;;2.97;1.40;;;;;;;17.95;71.90;102025.53;4976816;28;20050;-86
2021/08/24 07:47:29;;;;;;;3.20;2.00;;;;;;;18.09;68.10;102025.13;4990648;28;20095;-87
2021/08/24 07:50:00;;;;;;;3.95;1.55;;;;;;;17.91;66.92;102032.78;4967057;28;20066;-84
2021/08/24 07:52:29;;;;;;;3.38;2.00;;;;;;;17.48;67.26;102034.84;4973064;28;20052;-84
2021/08/24 07:54:57;;;;;;;3.08;1.58;;;;;;;17.53;70.39;102041.81;4970633;28;20050;-84
2021/08/24 07:57:24;;;;;;;4.95;1.77;;;;;;;17.38;67.67;102032.41;4972386;28;20046;-84
2021/08/24 07:59:50;;;;;;;2.78;1.73;;;;;;;17.64;69.86;102037.03;4976587;28;20038;-84
2021/08/24 08:02:18;;;;;;;3.28;2.10;;;;;;;17.63;69.12;102029.06;4989838;28;20046;-84
2021/08/24 08:04:45;;;;;;;3.70;1.58;;;;;;;17.57;70.66;102030.16;4983220;28;20046;-85
2021/08/24 08:07:13;;;;;;;2.58;1.85;;;;;;;17.85;72.91;102029.38;4972789;28;20039;-84
2021/08/24 08:09:40;;;;;;;3.38;1.65;;;;;;;18.00;70.25;102029.81;4961857;28;20525;-84
2021/08/24 08:12:08;;;;;;;3.25;2.30;;;;;;;18.15;68.30;102023.13;4971743;28;20049;-85
2021/08/24 08:14:35;;;;;;;3.13;1.88;;;;;;;18.27;70.17;102024.56;4969196;28;20042;-85
2021/08/24 08:17:03;;;;;;;3.97;2.15;;;;;;;18.37;68.61;102030.50;4967854;28;20077;-84
2021/08/24 08:19:30;;;;;;;4.55;1.70;;;;;;;18.39;66.73;102029.50;4958180;28;20640;-85
2021/08/24 08:21:57;;;;;;;3.83;2.03;;;;;;;18.39;65.23;102028.66;4975587;28;20073;-85
2021/08/24 08:24:24;;;;;;;4.18;1.70;;;;;;;18.48;66.56;102028.34;4988650;28;20042;-84
2021/08/24 08:26:50;;;;;;;3.63;1.83;;;;;;;18.43;64.36;102030.31;4961395;28;20069;-84
2021/08/24 08:29:17;;;;;;;3.58;1.95;;;;;;;18.72;65.88;102035.63;4974900;28;20044;-84
2021/08/24 08:31:46;;;;;;;3.03;1.98;;;;;;;18.84;63.58;102032.56;4986515;28;20134;-85
2021/08/24 08:34:13;;;;;;;2.97;1.80;;;;;;;18.79;63.17;102047.03;4976038;28;20046;-85
2021/08/24 08:36:40;;;;;;;2.83;1.70;;;;;;;18.78;63.08;102045.28;4976771;28;20038;-84
2021/08/24 08:39:07;;;;;;;3.08;1.92;;;;;;;18.97;60.73;102041.06;5006251;28;20046;-84
2021/08/24 08:41:40;;;;;;;2.67;1.60;;;;;;;19.08;60.49;102041.56;4972953;28;20527;-84
2021/08/24 08:44:42;;;;;;;2.67;1.90;;;;;;;19.03;60.20;102048.91;5006331;28;20057;-86
2021/08/24 08:47:21;;;;;;;3.85;1.60;;;;;;;19.30;60.68;102030.13;4982739;28;20553;-82
2021/08/24 08:49:56;;;;;;;3.25;1.95;;;;;;;19.25;61.16;102040.97;4978511;28;20049;-85
2021/08/24 08:52:33;;;;;;;3.45;2.00;;;;;;;19.28;60.54;102042.69;4997955;28;20156;-85
2021/08/24 08:55:10;;;;;;;3.83;1.67;;;;;;;19.25;58.88;102046.34;5001260;28;20053;-84
2021/08/24 08:57:44;;;;;;;3.22;1.90;;;;;;;19.36;60.75;102041.50;4992715;28;20041;-84
2021/08/24 09:00:17;;;;;;;3.65;2.10;;;;;;;19.18;60.33;102047.50;4960589;28;20391;-84
2021/08/24 09:02:48;;;;;;;3.33;2.00;;;;;;;18.96;59.56;102055.38;4977095;28;20411;-86
2021/08/24 09:05:22;;;;;;;3.05;2.40;;;;;;;19.01;62.18;102053.44;4995014;28;20049;-86
2021/08/24 09:07:55;;;;;;;3.08;1.92;;;;;;;19.34;63.70;102046.06;4983992;28;20653;-83
2021/08/24 09:10:39;;;;;;;6.03;2.28;;;;;;;19.24;58.29;102043.72;4971240;28;20068;-84
2021/08/24 09:13:24;;;;;;;4.13;2.22;;;;;;;19.22;59.84;102056.31;4977934;28;20046;-85
2021/08/24 09:16:09;;;;;;;3.55;2.28;;;;;;;19.38;59.33;102058.41;5019230;28;20075;-86
2021/08/24 09:18:48;;;;;;;3.22;2.22;;;;;;;19.51;58.34;102053.50;4997443;28;20491;-86
2021/08/24 09:21:39;;;;;;;4.85;2.38;;;;;;;19.75;59.35;102057.09;4994573;28;20054;-84
2021/08/24 09:24:17;;;;;;;4.60;2.60;;;;;;;19.77;53.22;102055.28;4977847;28;20054;-85
2021/08/24 09:26:49;;;;;;;3.80;2.58;;;;;;;19.99;54.06;102044.59;4980496;28;20081;-85
2021/08/24 09:29:21;;;;;;;5.07;2.22;;;;;;;20.06;53.46;102053.28;4979520;28;20806;-84
2021/08/24 09:31:48;;;;;;;4.68;2.40;;;;;;;19.96;56.89;102059.00;4983475;28;20137;-84
2021/08/24 09:34:18;;;;;;;4.72;2.70;;;;;;;20.06;53.34;102053.28;4983749;28;20049;-85
2021/08/24 09:36:45;;;;;;;3.25;2.47;;;;;;;20.25;54.26;102051.66;5016552;28;20419;-84
2021/08/24 09:39:12;;;;;;;4.57;2.40;;;;;;;20.59;55.99;102047.66;4975597;28;20054;-83
2021/08/24 09:41:40;;;;;;;3.67;2.35;;;;;;;20.18;51.46;102045.66;4981188;28;20049;-85
2021/08/24 09:44:18;;;;;;;3.60;2.63;;;;;;;19.68;54.28;102048.44;4993178;28;21615;-84
2021/08/24 09:47:20;;;;;;;3.88;2.20;;;;;;;19.62;55.54;102047.78;5090006;22;20650;-81
2021/08/24 09:49:49;;;;;;;5.20;2.38;;;;;;;19.51;57.94;102053.50;4988070;28;20033;-82
2021/08/24 09:52:24;;;;;;;4.70;2.35;;;;;;;19.87;57.40;102059.34;4977433;28;20054;-82
2021/08/24 09:54:54;;;;;;;3.00;2.00;;;;;;;20.24;54.83;102047.22;4985637;28;20682;-83
2021/08/24 09:57:27;;;;;;;4.53;2.50;;;;;;;20.35;50.89;102055.75;4963397;28;20089;-83
2021/08/24 10:00:29;;;;;;;4.03;2.58;;;;;;;20.35;50.69;102049.50;4980187;28;20050;-83
2021/08/24 10:02:58;;;;;;;4.28;2.28;;;;;;;20.32;52.26;102044.25;4975670;28;20047;-81
2021/08/24 10:05:36;;;;;;;3.78;2.30;;;;;;;20.18;53.62;102044.78;4978231;28;20137;-83
2021/08/24 10:08:28;;;;;;;3.70;2.10;;;;;;;20.52;54.56;102045.25;4989735;28;20054;-81
2021/08/24 10:11:05;;;;;;;3.88;2.30;;;;;;;20.05;50.00;102055.09;4959861;28;20050;-82
2021/08/24 10:13:35;;;;;;;4.80;2.47;;;;;;;20.32;50.56;102041.56;4958561;28;20068;-81
2021/08/24 10:16:09;;;;;;;4.75;2.28;;;;;;;20.26;47.95;102042.66;5001334;28;20050;-82
2021/08/24 10:18:37;;;;;;;5.45;3.20;;;;;;;19.94;47.85;102041.22;4970765;28;20046;-81
2021/08/24 10:21:27;;;;;;;3.38;2.55;;;;;;;19.67;48.68;102048.47;4952953;28;20403;-81
2021/08/24 10:23:59;;;;;;;5.78;2.75;;;;;;;19.89;51.14;102051.25;4996775;28;20048;-81
2021/08/24 10:26:28;;;;;;;4.32;2.53;;;;;;;20.21;51.40;102037.50;4988301;28;20052;-80
2021/08/24 10:28:57;;;;;;;3.70;2.25;;;;;;;20.51;50.52;102032.78;4988058;28;20052;-82
2021/08/24 10:31:33;;;;;;;3.80;2.60;;;;;;;20.77;51.22;102033.53;4973294;28;20046;-81
2021/08/24 10:34:32;;;;;;;3.55;2.28;;;;;;;20.80;47.76;102022.63;4978302;28;20046;-81
2021/08/24 10:37:23;;;;;;;4.22;2.50;;;;;;;21.06;49.82;102033.16;4988566;28;20108;-81
2021/08/24 10:39:54;;;;;;;6.88;2.72;;;;;;;21.41;47.85;102029.91;4979471;28;20038;-82
2021/08/24 10:42:28;;;;;;;4.95;2.70;;;;;;;21.60;48.89;102025.47;4977141;28;20052;-82
2021/08/24 10:45:00;;;;;;;3.83;2.45;;;;;;;21.64;47.74;102027.09;4979885;28;20084;-82
2021/08/24 10:47:43;;;;;;;4.32;2.88;;;;;;;21.40;42.99;102028.19;4984211;28;20048;-82
2021/08/24 10:50:19;;;;;;;3.93;2.43;;;;;;;21.23;41.53;102015.44;4974033;28;20049;-83
2021/08/24 10:52:53;;;;;;;4.20;2.63;;;;;;;21.33;44.24;102032.94;4991425;28;20293;-82
2021/08/24 10:55:26;;;;;;;4.35;3.08;;;;;;;21.43;44.22;102028.03;4992815;28;20406;-85
2021/08/24 10:58:07;;;;;;;5.03;2.90;;;;;;;21.62;44.32;102024.47;4994846;28;20048;-85
2021/08/24 11:00:53;;;;;;;4.22;2.65;;;;;;;21.58;42.88;102020.16;4990229;28;20042;-82
2021/08/24 11:03:48;;;;;;;4.68;2.70;;;;;;;21.68;41.34;102020.59;4994167;28;20223;-83
2021/08/24 11:06:40;;;;;;;5.05;3.10;;;;;;;21.61;42.49;102027.25;5021329;28;20049;-83
2021/08/24 11:09:18;;;;;;;4.00;2.70;;;;;;;21.56;43.29;102024.75;5011009;28;20069;-83
2021/08/24 11:11:50;;;;;;;4.45;3.00;;;;;;;21.70;41.94;102023.25;5008631;28;20042;-83
2021/08/24 11:14:38;;;;;;;3.92;2.92;;;;;;;21.67;43.46;102021.56;4995773;28;20046;-82
2021/08/24 11:17:19;;;;;;;3.88;2.83;;;;;;;21.83;43.87;102014.53;4970693;28;20049;-84
2021/08/24 11:19:54;;;;;;;4.75;2.72;;;;;;;22.03;42.59;102019.00;4966837;28;20042;-84
2021/08/24 11:22:58;;;;;;;4.03;2.90;;;;;;;22.06;43.09;102005.41;5025461;28;20160;-84
2021/08/24 11:25:31;;;;;;;4.43;3.03;;;;;;;22.13;40.62;102006.03;4994676;28;20064;-81
2021/08/24 11:28:29;;;;;;;5.50;3.38;;;;;;;22.29;42.70;102008.88;4993897;28;20056;-84
2021/08/24 11:31:15;;;;;;;5.25;2.70;;;;;;;22.38;42.98;102001.22;4997943;28;20042;-83
2021/08/24 11:33:48;;;;;;;3.90;2.50;;;;;;;22.00;41.27;102004.81;5015203;28;20038;-83
2021/08/24 11:36:23;;;;;;;4.78;2.80;;;;;;;21.80;43.33;102003.94;5009486;28;20045;-82
2021/08/24 11:38:58;;;;;;;4.60;2.55;;;;;;;21.74;42.88;101998.81;4984697;28;20057;-83
2021/08/24 11:41:26;;;;;;;4.53;2.78;;;;;;;21.90;41.29;101990.91;4977666;28;20060;-83
2021/08/24 11:44:06;;;;;;;3.08;2.10;;;;;;;22.04;43.94;102001.91;4990195;28;20072;-83